sensor_id;sensor_type;location;lat;lon;timestamp;temperature;humidity
33580;DHT22;19909;43.644;-79.438;2023-12-20T00:00:09;24.70;26.10
33580;DHT22;19909;43.644;-79.438;2023-12-20T00:02:35;24.60;25.90
33580;DHT22;19909;43.644;-79.438;2023-12-20T00:05:03;24.50;25.90
33580;DHT22;19909;43.644;-79.438;2023-12-20T00:07:29;24.50;26.10
33580;DHT22;19909;43.644;-79.438;2023-12-20T00:09:56;24.60;25.90
33580;DHT22;19909;43.644;-79.438;2023-12-20T00:12:22;24.70;25.70
33580;DHT22;19909;43.644;-79.438;2023-12-20T00:14:48;24.80;25.60
33580;DHT22;19909;43.644;-79.438;2023-12-20T00:17:14;24.90;25.50
33580;DHT22;19909;43.644;-79.438;2023-12-20T00:19:41;25.10;25.50
33580;DHT22;19909;43.644;-79.438;2023-12-20T00:22:07;25.20;25.50
33580;DHT22;19909;43.644;-79.438;2023-12-20T00:24:33;25.30;25.50
33580;DHT22;19909;43.644;-79.438;2023-12-20T00:26:59;25.40;25.50
33580;DHT22;19909;43.644;-79.438;2023-12-20T00:29:26;25.30;25.80
33580;DHT22;19909;43.644;-79.438;2023-12-20T00:31:52;25.20;25.90
33580;DHT22;19909;43.644;-79.438;2023-12-20T00:34:18;25.10;26.00
33580;DHT22;19909;43.644;-79.438;2023-12-20T00:36:44;25.00;26.00
33580;DHT22;19909;43.644;-79.438;2023-12-20T00:39:10;24.90;26.10
33580;DHT22;19909;43.644;-79.438;2023-12-20T00:41:37;24.70;26.10
33580;DHT22;19909;43.644;-79.438;2023-12-20T00:44:03;24.70;26.20
33580;DHT22;19909;43.644;-79.438;2023-12-20T00:46:29;24.50;26.10
33580;DHT22;19909;43.644;-79.438;2023-12-20T00:48:56;24.40;26.00
33580;DHT22;19909;43.644;-79.438;2023-12-20T00:51:22;24.40;26.00
33580;DHT22;19909;43.644;-79.438;2023-12-20T00:53:50;24.40;26.20
33580;DHT22;19909;43.644;-79.438;2023-12-20T00:56:20;24.40;25.90
33580;DHT22;19909;43.644;-79.438;2023-12-20T00:58:47;24.60;25.80
33580;DHT22;19909;43.644;-79.438;2023-12-20T01:01:13;24.70;25.80
33580;DHT22;19909;43.644;-79.438;2023-12-20T01:03:39;24.90;25.80
33580;DHT22;19909;43.644;-79.438;2023-12-20T01:06:05;25.00;25.80
33580;DHT22;19909;43.644;-79.438;2023-12-20T01:08:32;25.20;25.70
33580;DHT22;19909;43.644;-79.438;2023-12-20T01:11:00;25.30;25.60
33580;DHT22;19909;43.644;-79.438;2023-12-20T01:13:26;25.30;25.50
33580;DHT22;19909;43.644;-79.438;2023-12-20T01:15:53;25.20;25.90
33580;DHT22;19909;43.644;-79.438;2023-12-20T01:18:19;25.10;26.00
33580;DHT22;19909;43.644;-79.438;2023-12-20T01:20:46;25.00;26.00
33580;DHT22;19909;43.644;-79.438;2023-12-20T01:23:12;24.90;26.10
33580;DHT22;19909;43.644;-79.438;2023-12-20T01:25:38;24.70;26.10
33580;DHT22;19909;43.644;-79.438;2023-12-20T01:28:05;24.60;26.30
33580;DHT22;19909;43.644;-79.438;2023-12-20T01:30:31;24.50;26.40
33580;DHT22;19909;43.644;-79.438;2023-12-20T01:32:59;24.40;26.40
33580;DHT22;19909;43.644;-79.438;2023-12-20T01:35:25;24.30;26.50
33580;DHT22;19909;43.644;-79.438;2023-12-20T01:37:52;24.20;26.50
33580;DHT22;19909;43.644;-79.438;2023-12-20T01:40:22;24.10;26.60
33580;DHT22;19909;43.644;-79.438;2023-12-20T01:43:09;24.00;26.70
33580;DHT22;19909;43.644;-79.438;2023-12-20T01:45:38;24.00;26.80
33580;DHT22;19909;43.644;-79.438;2023-12-20T01:48:05;23.80;26.80
33580;DHT22;19909;43.644;-79.438;2023-12-20T01:50:32;23.80;26.80
33580;DHT22;19909;43.644;-79.438;2023-12-20T01:53:01;23.70;26.90
33580;DHT22;19909;43.644;-79.438;2023-12-20T01:55:31;23.70;26.90
33580;DHT22;19909;43.644;-79.438;2023-12-20T01:57:59;23.60;26.90
33580;DHT22;19909;43.644;-79.438;2023-12-20T02:00:27;23.50;26.90
33580;DHT22;19909;43.644;-79.438;2023-12-20T02:02:54;23.50;26.90
33580;DHT22;19909;43.644;-79.438;2023-12-20T02:05:24;23.50;27.00
33580;DHT22;19909;43.644;-79.438;2023-12-20T02:07:55;23.40;27.00
33580;DHT22;19909;43.644;-79.438;2023-12-20T02:10:25;23.40;27.00
33580;DHT22;19909;43.644;-79.438;2023-12-20T02:12:51;23.40;27.10
33580;DHT22;19909;43.644;-79.438;2023-12-20T02:15:17;23.30;27.00
33580;DHT22;19909;43.644;-79.438;2023-12-20T02:17:45;23.30;26.90
33580;DHT22;19909;43.644;-79.438;2023-12-20T02:20:13;23.30;26.80
33580;DHT22;19909;43.644;-79.438;2023-12-20T02:22:39;23.40;27.00
33580;DHT22;19909;43.644;-79.438;2023-12-20T02:25:05;23.50;26.90
33580;DHT22;19909;43.644;-79.438;2023-12-20T02:27:31;23.60;26.80
33580;DHT22;19909;43.644;-79.438;2023-12-20T02:29:58;23.80;26.70
33580;DHT22;19909;43.644;-79.438;2023-12-20T02:32:28;24.00;26.60
33580;DHT22;19909;43.644;-79.438;2023-12-20T02:34:57;24.20;26.50
33580;DHT22;19909;43.644;-79.438;2023-12-20T02:37:24;24.40;26.40
33580;DHT22;19909;43.644;-79.438;2023-12-20T02:39:50;24.60;26.30
33580;DHT22;19909;43.644;-79.438;2023-12-20T02:42:17;24.70;26.20
33580;DHT22;19909;43.644;-79.438;2023-12-20T02:44:43;24.60;26.30
33580;DHT22;19909;43.644;-79.438;2023-12-20T02:47:10;24.60;26.40
33580;DHT22;19909;43.644;-79.438;2023-12-20T02:49:36;24.50;26.40
33580;DHT22;19909;43.644;-79.438;2023-12-20T02:52:02;24.40;26.40
33580;DHT22;19909;43.644;-79.438;2023-12-20T02:54:29;24.30;26.50
33580;DHT22;19909;43.644;-79.438;2023-12-20T02:56:55;24.20;26.50
33580;DHT22;19909;43.644;-79.438;2023-12-20T02:59:22;24.10;26.60
33580;DHT22;19909;43.644;-79.438;2023-12-20T03:01:48;24.00;26.70
33580;DHT22;19909;43.644;-79.438;2023-12-20T03:04:15;23.90;26.70
33580;DHT22;19909;43.644;-79.438;2023-12-20T03:06:42;23.90;26.80
33580;DHT22;19909;43.644;-79.438;2023-12-20T03:09:08;23.70;26.60
33580;DHT22;19909;43.644;-79.438;2023-12-20T03:11:34;23.70;26.50
33580;DHT22;19909;43.644;-79.438;2023-12-20T03:14:00;23.70;26.70
33580;DHT22;19909;43.644;-79.438;2023-12-20T03:16:26;23.80;26.80
33580;DHT22;19909;43.644;-79.438;2023-12-20T03:18:52;23.80;26.70
33580;DHT22;19909;43.644;-79.438;2023-12-20T03:21:19;24.00;26.60
33580;DHT22;19909;43.644;-79.438;2023-12-20T03:23:45;24.20;26.40
33580;DHT22;19909;43.644;-79.438;2023-12-20T03:26:11;24.30;26.30
33580;DHT22;19909;43.644;-79.438;2023-12-20T03:28:37;24.50;26.30
33580;DHT22;19909;43.644;-79.438;2023-12-20T03:31:03;24.70;26.20
33580;DHT22;19909;43.644;-79.438;2023-12-20T03:33:30;24.80;26.00
33580;DHT22;19909;43.644;-79.438;2023-12-20T03:35:56;24.90;26.10
33580;DHT22;19909;43.644;-79.438;2023-12-20T03:38:22;24.90;26.10
33580;DHT22;19909;43.644;-79.438;2023-12-20T03:40:51;24.80;26.30
33580;DHT22;19909;43.644;-79.438;2023-12-20T03:43:17;24.70;26.20
33580;DHT22;19909;43.644;-79.438;2023-12-20T03:45:44;24.60;26.30
33580;DHT22;19909;43.644;-79.438;2023-12-20T03:48:11;24.40;26.80
33580;DHT22;19909;43.644;-79.438;2023-12-20T03:50:38;24.30;26.40
33580;DHT22;19909;43.644;-79.438;2023-12-20T03:53:04;24.20;26.40
33580;DHT22;19909;43.644;-79.438;2023-12-20T03:55:30;24.00;26.30
33580;DHT22;19909;43.644;-79.438;2023-12-20T03:57:57;24.00;26.30
33580;DHT22;19909;43.644;-79.438;2023-12-20T04:00:23;24.00;26.40
33580;DHT22;19909;43.644;-79.438;2023-12-20T04:02:49;24.00;26.50
33580;DHT22;19909;43.644;-79.438;2023-12-20T04:05:15;24.10;26.40
33580;DHT22;19909;43.644;-79.438;2023-12-20T04:07:41;24.20;26.30
33580;DHT22;19909;43.644;-79.438;2023-12-20T04:10:07;24.40;26.20
33580;DHT22;19909;43.644;-79.438;2023-12-20T04:12:34;24.50;26.30
33580;DHT22;19909;43.644;-79.438;2023-12-20T04:15:00;24.70;26.60
33580;DHT22;19909;43.644;-79.438;2023-12-20T04:17:27;24.90;26.00
33580;DHT22;19909;43.644;-79.438;2023-12-20T04:19:53;25.00;25.80
33580;DHT22;19909;43.644;-79.438;2023-12-20T04:22:20;25.00;25.80
33580;DHT22;19909;43.644;-79.438;2023-12-20T04:24:46;25.00;26.00
33580;DHT22;19909;43.644;-79.438;2023-12-20T04:27:12;24.90;26.10
33580;DHT22;19909;43.644;-79.438;2023-12-20T04:29:38;24.80;26.10
33580;DHT22;19909;43.644;-79.438;2023-12-20T04:32:05;24.70;26.20
33580;DHT22;19909;43.644;-79.438;2023-12-20T04:34:31;24.50;26.20
33580;DHT22;19909;43.644;-79.438;2023-12-20T04:36:57;24.40;26.30
33580;DHT22;19909;43.644;-79.438;2023-12-20T04:39:24;24.30;26.90
33580;DHT22;19909;43.644;-79.438;2023-12-20T04:41:50;24.20;26.40
33580;DHT22;19909;43.644;-79.438;2023-12-20T04:44:16;24.10;26.20
33580;DHT22;19909;43.644;-79.438;2023-12-20T04:46:42;24.10;26.30
33580;DHT22;19909;43.644;-79.438;2023-12-20T04:49:09;24.10;26.50
33580;DHT22;19909;43.644;-79.438;2023-12-20T04:51:35;24.20;26.40
33580;DHT22;19909;43.644;-79.438;2023-12-20T04:54:02;24.30;26.30
33580;DHT22;19909;43.644;-79.438;2023-12-20T04:56:29;24.40;26.10
33580;DHT22;19909;43.644;-79.438;2023-12-20T04:58:55;24.60;26.10
33580;DHT22;19909;43.644;-79.438;2023-12-20T05:01:21;24.80;26.00
33580;DHT22;19909;43.644;-79.438;2023-12-20T05:03:47;24.90;25.90
33580;DHT22;19909;43.644;-79.438;2023-12-20T05:06:13;25.10;25.90
33580;DHT22;19909;43.644;-79.438;2023-12-20T05:08:40;25.20;25.80
33580;DHT22;19909;43.644;-79.438;2023-12-20T05:11:07;25.10;26.00
33580;DHT22;19909;43.644;-79.438;2023-12-20T05:13:33;25.10;26.00
33580;DHT22;19909;43.644;-79.438;2023-12-20T05:15:59;24.90;26.10
33580;DHT22;19909;43.644;-79.438;2023-12-20T05:18:25;24.80;25.90
33580;DHT22;19909;43.644;-79.438;2023-12-20T05:20:52;24.70;26.20
33580;DHT22;19909;43.644;-79.438;2023-12-20T05:23:18;24.60;26.30
33580;DHT22;19909;43.644;-79.438;2023-12-20T05:25:46;24.40;26.20
33580;DHT22;19909;43.644;-79.438;2023-12-20T05:28:12;24.30;26.50
33580;DHT22;19909;43.644;-79.438;2023-12-20T05:30:38;24.30;26.20
33580;DHT22;19909;43.644;-79.438;2023-12-20T05:33:05;24.30;26.80
33580;DHT22;19909;43.644;-79.438;2023-12-20T05:35:31;24.30;26.50
33580;DHT22;19909;43.644;-79.438;2023-12-20T05:37:57;24.30;26.20
33580;DHT22;19909;43.644;-79.438;2023-12-20T05:40:24;24.50;26.10
33580;DHT22;19909;43.644;-79.438;2023-12-20T05:42:50;24.70;26.10
33580;DHT22;19909;43.644;-79.438;2023-12-20T05:45:16;24.80;26.00
33580;DHT22;19909;43.644;-79.438;2023-12-20T05:47:42;25.00;26.00
33580;DHT22;19909;43.644;-79.438;2023-12-20T05:50:08;25.10;25.90
33580;DHT22;19909;43.644;-79.438;2023-12-20T05:52:35;25.20;25.80
33580;DHT22;19909;43.644;-79.438;2023-12-20T05:55:01;25.20;25.70
33580;DHT22;19909;43.644;-79.438;2023-12-20T05:57:28;25.10;25.90
33580;DHT22;19909;43.644;-79.438;2023-12-20T05:59:54;25.00;26.00
33580;DHT22;19909;43.644;-79.438;2023-12-20T06:02:21;24.80;26.00
33580;DHT22;19909;43.644;-79.438;2023-12-20T06:04:47;24.80;26.20
33580;DHT22;19909;43.644;-79.438;2023-12-20T06:07:14;24.60;26.20
33580;DHT22;19909;43.644;-79.438;2023-12-20T06:09:40;24.50;26.20
33580;DHT22;19909;43.644;-79.438;2023-12-20T06:12:07;24.40;26.00
33580;DHT22;19909;43.644;-79.438;2023-12-20T06:14:34;24.30;26.20
33580;DHT22;19909;43.644;-79.438;2023-12-20T06:17:01;24.40;26.40
33580;DHT22;19909;43.644;-79.438;2023-12-20T06:19:27;24.40;26.30
33580;DHT22;19909;43.644;-79.438;2023-12-20T06:21:54;24.50;26.20
33580;DHT22;19909;43.644;-79.438;2023-12-20T06:24:20;24.60;26.20
33580;DHT22;19909;43.644;-79.438;2023-12-20T06:26:47;24.70;26.10
33580;DHT22;19909;43.644;-79.438;2023-12-20T06:29:14;24.90;26.00
33580;DHT22;19909;43.644;-79.438;2023-12-20T06:31:40;25.10;25.90
33580;DHT22;19909;43.644;-79.438;2023-12-20T06:34:06;25.20;25.80
33580;DHT22;19909;43.644;-79.438;2023-12-20T06:36:33;25.20;25.80
33580;DHT22;19909;43.644;-79.438;2023-12-20T06:38:59;25.20;26.00
33580;DHT22;19909;43.644;-79.438;2023-12-20T06:41:25;25.10;26.10
33580;DHT22;19909;43.644;-79.438;2023-12-20T06:43:52;25.00;26.10
33580;DHT22;19909;43.644;-79.438;2023-12-20T06:46:19;24.90;26.10
33580;DHT22;19909;43.644;-79.438;2023-12-20T06:48:45;24.70;26.20
33580;DHT22;19909;43.644;-79.438;2023-12-20T06:51:16;24.60;26.30
33580;DHT22;19909;43.644;-79.438;2023-12-20T06:53:43;24.50;26.30
33580;DHT22;19909;43.644;-79.438;2023-12-20T06:56:11;24.40;26.10
33580;DHT22;19909;43.644;-79.438;2023-12-20T06:58:38;24.40;26.30
33580;DHT22;19909;43.644;-79.438;2023-12-20T07:01:04;24.40;26.50
33580;DHT22;19909;43.644;-79.438;2023-12-20T07:03:31;24.40;26.40
33580;DHT22;19909;43.644;-79.438;2023-12-20T07:05:57;24.50;26.30
33580;DHT22;19909;43.644;-79.438;2023-12-20T07:08:23;24.60;26.20
33580;DHT22;19909;43.644;-79.438;2023-12-20T07:10:49;24.80;26.10
33580;DHT22;19909;43.644;-79.438;2023-12-20T07:13:16;24.90;26.00
33580;DHT22;19909;43.644;-79.438;2023-12-20T07:15:42;25.20;26.20
33580;DHT22;19909;43.644;-79.438;2023-12-20T07:18:08;25.30;25.80
33580;DHT22;19909;43.644;-79.438;2023-12-20T07:20:35;25.30;25.80
33580;DHT22;19909;43.644;-79.438;2023-12-20T07:23:01;25.30;25.90
33580;DHT22;19909;43.644;-79.438;2023-12-20T07:25:27;25.20;26.00
33580;DHT22;19909;43.644;-79.438;2023-12-20T07:27:53;25.10;26.10
33580;DHT22;19909;43.644;-79.438;2023-12-20T07:30:20;24.90;26.10
33580;DHT22;19909;43.644;-79.438;2023-12-20T07:32:46;24.80;26.20
33580;DHT22;19909;43.644;-79.438;2023-12-20T07:35:13;24.70;26.20
33580;DHT22;19909;43.644;-79.438;2023-12-20T07:37:39;24.60;26.40
33580;DHT22;19909;43.644;-79.438;2023-12-20T07:40:06;24.50;26.40
33580;DHT22;19909;43.644;-79.438;2023-12-20T07:42:32;24.40;26.20
33580;DHT22;19909;43.644;-79.438;2023-12-20T07:44:59;24.40;26.40
33580;DHT22;19909;43.644;-79.438;2023-12-20T07:47:25;24.30;26.50
33580;DHT22;19909;43.644;-79.438;2023-12-20T07:49:51;24.40;26.50
33580;DHT22;19909;43.644;-79.438;2023-12-20T07:52:18;24.50;26.30
33580;DHT22;19909;43.644;-79.438;2023-12-20T07:54:51;24.60;26.20
33580;DHT22;19909;43.644;-79.438;2023-12-20T07:57:18;24.80;26.20
33580;DHT22;19909;43.644;-79.438;2023-12-20T07:59:44;24.90;26.00
33580;DHT22;19909;43.644;-79.438;2023-12-20T08:02:10;25.10;26.00
33580;DHT22;19909;43.644;-79.438;2023-12-20T08:04:36;25.20;25.90
33580;DHT22;19909;43.644;-79.438;2023-12-20T08:07:03;25.20;26.00
33580;DHT22;19909;43.644;-79.438;2023-12-20T08:09:30;25.20;26.00
33580;DHT22;19909;43.644;-79.438;2023-12-20T08:11:57;25.10;26.10
33580;DHT22;19909;43.644;-79.438;2023-12-20T08:14:26;25.00;26.40
33580;DHT22;19909;43.644;-79.438;2023-12-20T08:16:52;24.90;26.30
33580;DHT22;19909;43.644;-79.438;2023-12-20T08:19:18;24.70;26.80
33580;DHT22;19909;43.644;-79.438;2023-12-20T08:21:44;24.60;26.40
33580;DHT22;19909;43.644;-79.438;2023-12-20T08:24:10;24.50;26.50
33580;DHT22;19909;43.644;-79.438;2023-12-20T08:26:36;24.40;26.40
33580;DHT22;19909;43.644;-79.438;2023-12-20T08:29:03;24.30;26.30
33580;DHT22;19909;43.644;-79.438;2023-12-20T08:31:29;24.30;26.50
33580;DHT22;19909;43.644;-79.438;2023-12-20T08:33:55;24.30;26.50
33580;DHT22;19909;43.644;-79.438;2023-12-20T08:36:22;24.40;26.40
33580;DHT22;19909;43.644;-79.438;2023-12-20T08:38:49;24.50;26.30
33580;DHT22;19909;43.644;-79.438;2023-12-20T08:41:16;24.70;26.70
33580;DHT22;19909;43.644;-79.438;2023-12-20T08:43:43;24.90;26.10
33580;DHT22;19909;43.644;-79.438;2023-12-20T08:46:09;25.00;26.00
33580;DHT22;19909;43.644;-79.438;2023-12-20T08:48:36;25.20;26.00
33580;DHT22;19909;43.644;-79.438;2023-12-20T08:51:03;25.30;25.90
33580;DHT22;19909;43.644;-79.438;2023-12-20T08:53:29;25.30;26.00
33580;DHT22;19909;43.644;-79.438;2023-12-20T08:55:56;25.20;26.00
33580;DHT22;19909;43.644;-79.438;2023-12-20T08:58:23;25.10;26.10
33580;DHT22;19909;43.644;-79.438;2023-12-20T09:00:49;25.00;26.20
33580;DHT22;19909;43.644;-79.438;2023-12-20T09:03:16;24.90;26.30
33580;DHT22;19909;43.644;-79.438;2023-12-20T09:05:42;24.80;26.40
33580;DHT22;19909;43.644;-79.438;2023-12-20T09:08:08;24.60;26.40
33580;DHT22;19909;43.644;-79.438;2023-12-20T09:10:37;24.50;26.50
33580;DHT22;19909;43.644;-79.438;2023-12-20T09:13:03;24.40;26.30
33580;DHT22;19909;43.644;-79.438;2023-12-20T09:15:30;24.40;26.40
33580;DHT22;19909;43.644;-79.438;2023-12-20T09:17:57;24.40;26.50
33580;DHT22;19909;43.644;-79.438;2023-12-20T09:20:24;24.40;26.60
33580;DHT22;19909;43.644;-79.438;2023-12-20T09:22:50;24.50;26.40
33580;DHT22;19909;43.644;-79.438;2023-12-20T09:25:16;24.60;26.30
33580;DHT22;19909;43.644;-79.438;2023-12-20T09:27:43;24.70;26.20
33580;DHT22;19909;43.644;-79.438;2023-12-20T09:30:10;24.90;26.10
33580;DHT22;19909;43.644;-79.438;2023-12-20T09:32:36;25.10;25.90
33580;DHT22;19909;43.644;-79.438;2023-12-20T09:35:03;25.20;25.90
33580;DHT22;19909;43.644;-79.438;2023-12-20T09:37:31;25.30;25.80
33580;DHT22;19909;43.644;-79.438;2023-12-20T09:39:57;25.30;26.10
33580;DHT22;19909;43.644;-79.438;2023-12-20T09:42:36;25.20;26.10
33580;DHT22;19909;43.644;-79.438;2023-12-20T09:45:08;25.10;26.10
33580;DHT22;19909;43.644;-79.438;2023-12-20T09:47:35;25.00;26.30
33580;DHT22;19909;43.644;-79.438;2023-12-20T09:50:03;24.80;26.40
33580;DHT22;19909;43.644;-79.438;2023-12-20T09:52:29;24.70;26.40
33580;DHT22;19909;43.644;-79.438;2023-12-20T09:54:56;24.60;26.20
33580;DHT22;19909;43.644;-79.438;2023-12-20T09:57:23;24.50;26.40
33580;DHT22;19909;43.644;-79.438;2023-12-20T09:59:49;24.40;26.30
33580;DHT22;19909;43.644;-79.438;2023-12-20T10:02:18;24.40;26.50
33580;DHT22;19909;43.644;-79.438;2023-12-20T10:04:47;24.40;26.60
33580;DHT22;19909;43.644;-79.438;2023-12-20T10:07:16;24.50;26.50
33580;DHT22;19909;43.644;-79.438;2023-12-20T10:09:43;24.60;26.30
33580;DHT22;19909;43.644;-79.438;2023-12-20T10:12:09;24.70;26.20
33580;DHT22;19909;43.644;-79.438;2023-12-20T10:14:36;24.90;26.10
33580;DHT22;19909;43.644;-79.438;2023-12-20T10:17:03;25.00;26.00
33580;DHT22;19909;43.644;-79.438;2023-12-20T10:19:29;25.20;25.90
33580;DHT22;19909;43.644;-79.438;2023-12-20T10:21:57;25.30;25.80
33580;DHT22;19909;43.644;-79.438;2023-12-20T10:24:23;25.40;26.00
33580;DHT22;19909;43.644;-79.438;2023-12-20T10:27:04;25.30;26.00
33580;DHT22;19909;43.644;-79.438;2023-12-20T10:29:38;25.20;25.90
33580;DHT22;19909;43.644;-79.438;2023-12-20T10:32:30;25.10;26.10
33580;DHT22;19909;43.644;-79.438;2023-12-20T10:34:57;24.90;26.30
33580;DHT22;19909;43.644;-79.438;2023-12-20T10:37:25;24.80;26.30
33580;DHT22;19909;43.644;-79.438;2023-12-20T10:39:52;24.70;26.50
33580;DHT22;19909;43.644;-79.438;2023-12-20T10:42:31;24.50;26.50
33580;DHT22;19909;43.644;-79.438;2023-12-20T10:44:59;24.40;26.40
33580;DHT22;19909;43.644;-79.438;2023-12-20T10:47:26;24.40;26.30
33580;DHT22;19909;43.644;-79.438;2023-12-20T10:49:54;24.30;26.50
33580;DHT22;19909;43.644;-79.438;2023-12-20T10:52:23;24.40;26.70
33580;DHT22;19909;43.644;-79.438;2023-12-20T10:54:53;24.50;26.50
33580;DHT22;19909;43.644;-79.438;2023-12-20T10:57:19;24.60;26.30
33580;DHT22;19909;43.644;-79.438;2023-12-20T10:59:48;24.80;26.30
33580;DHT22;19909;43.644;-79.438;2023-12-20T11:02:15;24.90;26.10
33580;DHT22;19909;43.644;-79.438;2023-12-20T11:04:47;25.10;26.00
33580;DHT22;19909;43.644;-79.438;2023-12-20T11:07:29;25.20;26.00
33580;DHT22;19909;43.644;-79.438;2023-12-20T11:10:41;25.30;25.80
33580;DHT22;19909;43.644;-79.438;2023-12-20T11:13:40;25.30;26.10
33580;DHT22;19909;43.644;-79.438;2023-12-20T11:16:03;25.20;26.00
33580;DHT22;19909;43.644;-79.438;2023-12-20T11:18:31;25.00;26.00
33580;DHT22;19909;43.644;-79.438;2023-12-20T11:21:01;24.90;26.30
33580;DHT22;19909;43.644;-79.438;2023-12-20T11:23:30;24.80;26.30
33580;DHT22;19909;43.644;-79.438;2023-12-20T11:25:57;24.70;26.50
33580;DHT22;19909;43.644;-79.438;2023-12-20T11:28:25;24.60;26.50
33580;DHT22;19909;43.644;-79.438;2023-12-20T11:30:56;24.40;26.30
33580;DHT22;19909;43.644;-79.438;2023-12-20T11:33:26;24.40;26.20
33580;DHT22;19909;43.644;-79.438;2023-12-20T11:35:59;24.30;26.40
33580;DHT22;19909;43.644;-79.438;2023-12-20T11:38:26;24.40;26.60
33580;DHT22;19909;43.644;-79.438;2023-12-20T11:40:54;24.40;26.50
33580;DHT22;19909;43.644;-79.438;2023-12-20T11:43:38;24.50;26.30
33580;DHT22;19909;43.644;-79.438;2023-12-20T11:46:06;24.70;26.20
33580;DHT22;19909;43.644;-79.438;2023-12-20T11:48:40;24.80;26.00
33580;DHT22;19909;43.644;-79.438;2023-12-20T11:51:10;25.00;26.00
33580;DHT22;19909;43.644;-79.438;2023-12-20T11:53:37;25.20;25.90
33580;DHT22;19909;43.644;-79.438;2023-12-20T11:56:07;25.30;25.90
33580;DHT22;19909;43.644;-79.438;2023-12-20T11:58:34;25.30;25.80
33580;DHT22;19909;43.644;-79.438;2023-12-20T12:01:01;25.30;25.70
33580;DHT22;19909;43.644;-79.438;2023-12-20T12:03:31;25.20;25.70
33580;DHT22;19909;43.644;-79.438;2023-12-20T12:05:58;25.10;25.80
33580;DHT22;19909;43.644;-79.438;2023-12-20T12:08:26;24.90;26.10
33580;DHT22;19909;43.644;-79.438;2023-12-20T12:10:52;24.90;26.30
33580;DHT22;19909;43.644;-79.438;2023-12-20T12:13:19;24.70;26.40
33580;DHT22;19909;43.644;-79.438;2023-12-20T12:15:45;24.60;26.50
33580;DHT22;19909;43.644;-79.438;2023-12-20T12:18:16;24.50;26.30
33580;DHT22;19909;43.644;-79.438;2023-12-20T12:20:42;24.40;26.20
33580;DHT22;19909;43.644;-79.438;2023-12-20T12:23:09;24.40;26.40
33580;DHT22;19909;43.644;-79.438;2023-12-20T12:25:37;24.40;26.50
33580;DHT22;19909;43.644;-79.438;2023-12-20T12:28:03;24.50;26.40
33580;DHT22;19909;43.644;-79.438;2023-12-20T12:30:30;24.60;26.30
33580;DHT22;19909;43.644;-79.438;2023-12-20T12:32:56;24.70;26.10
33580;DHT22;19909;43.644;-79.438;2023-12-20T12:35:24;24.90;26.00
33580;DHT22;19909;43.644;-79.438;2023-12-20T12:37:51;25.00;26.10
33580;DHT22;19909;43.644;-79.438;2023-12-20T12:40:18;25.10;26.00
33580;DHT22;19909;43.644;-79.438;2023-12-20T12:42:45;25.10;26.10
33580;DHT22;19909;43.644;-79.438;2023-12-20T12:45:12;25.10;25.90
33580;DHT22;19909;43.644;-79.438;2023-12-20T12:47:38;25.00;26.10
33580;DHT22;19909;43.644;-79.438;2023-12-20T12:50:05;24.90;25.90
33580;DHT22;19909;43.644;-79.438;2023-12-20T12:52:32;24.80;26.00
33580;DHT22;19909;43.644;-79.438;2023-12-20T12:54:59;24.70;26.30
33580;DHT22;19909;43.644;-79.438;2023-12-20T12:57:25;24.60;26.10
33580;DHT22;19909;43.644;-79.438;2023-12-20T12:59:52;24.50;26.10
33580;DHT22;19909;43.644;-79.438;2023-12-20T13:02:19;24.40;26.20
33580;DHT22;19909;43.644;-79.438;2023-12-20T13:04:45;24.50;26.30
33580;DHT22;19909;43.644;-79.438;2023-12-20T13:07:12;24.60;26.40
33580;DHT22;19909;43.644;-79.438;2023-12-20T13:09:39;24.70;26.10
33580;DHT22;19909;43.644;-79.438;2023-12-20T13:12:08;24.80;26.00
33580;DHT22;19909;43.644;-79.438;2023-12-20T13:14:35;25.00;25.90
33580;DHT22;19909;43.644;-79.438;2023-12-20T13:17:05;25.10;25.90
33580;DHT22;19909;43.644;-79.438;2023-12-20T13:19:32;25.30;25.80
33580;DHT22;19909;43.644;-79.438;2023-12-20T13:21:58;25.40;25.80
33580;DHT22;19909;43.644;-79.438;2023-12-20T13:24:24;25.50;25.90
33580;DHT22;19909;43.644;-79.438;2023-12-20T13:26:50;25.40;25.90
33580;DHT22;19909;43.644;-79.438;2023-12-20T13:29:17;25.30;25.90
33580;DHT22;19909;43.644;-79.438;2023-12-20T13:31:43;25.20;26.10
33580;DHT22;19909;43.644;-79.438;2023-12-20T13:34:09;25.10;25.90
33580;DHT22;19909;43.644;-79.438;2023-12-20T13:36:35;25.00;26.10
33580;DHT22;19909;43.644;-79.438;2023-12-20T13:39:03;24.90;26.00
33580;DHT22;19909;43.644;-79.438;2023-12-20T13:41:31;24.80;26.40
33580;DHT22;19909;43.644;-79.438;2023-12-20T13:43:57;24.70;26.20
33580;DHT22;19909;43.644;-79.438;2023-12-20T13:46:24;24.80;26.20
33580;DHT22;19909;43.644;-79.438;2023-12-20T13:48:51;24.80;26.20
33580;DHT22;19909;43.644;-79.438;2023-12-20T13:51:17;24.90;26.10
33580;DHT22;19909;43.644;-79.438;2023-12-20T13:53:44;25.00;26.00
33580;DHT22;19909;43.644;-79.438;2023-12-20T13:56:10;25.10;25.90
33580;DHT22;19909;43.644;-79.438;2023-12-20T13:58:36;25.20;25.90
33580;DHT22;19909;43.644;-79.438;2023-12-20T14:01:02;25.30;25.80
33580;DHT22;19909;43.644;-79.438;2023-12-20T14:03:28;25.30;25.80
33580;DHT22;19909;43.644;-79.438;2023-12-20T14:05:55;25.20;25.90
33580;DHT22;19909;43.644;-79.438;2023-12-20T14:08:21;25.10;25.90
33580;DHT22;19909;43.644;-79.438;2023-12-20T14:10:48;25.00;25.90
33580;DHT22;19909;43.644;-79.438;2023-12-20T14:13:14;24.90;26.30
33580;DHT22;19909;43.644;-79.438;2023-12-20T14:15:40;24.80;26.30
33580;DHT22;19909;43.644;-79.438;2023-12-20T14:18:06;24.70;26.30
33580;DHT22;19909;43.644;-79.438;2023-12-20T14:20:34;24.60;26.20
33580;DHT22;19909;43.644;-79.438;2023-12-20T14:23:01;24.50;26.30
33580;DHT22;19909;43.644;-79.438;2023-12-20T14:25:28;24.60;26.40
33580;DHT22;19909;43.644;-79.438;2023-12-20T14:27:54;24.60;26.30
33580;DHT22;19909;43.644;-79.438;2023-12-20T14:30:21;24.70;26.20
33580;DHT22;19909;43.644;-79.438;2023-12-20T14:32:47;24.80;26.10
33580;DHT22;19909;43.644;-79.438;2023-12-20T14:35:14;24.90;26.10
33580;DHT22;19909;43.644;-79.438;2023-12-20T14:37:40;25.10;26.00
33580;DHT22;19909;43.644;-79.438;2023-12-20T14:40:07;25.20;26.10
33580;DHT22;19909;43.644;-79.438;2023-12-20T14:42:44;25.10;26.00
33580;DHT22;19909;43.644;-79.438;2023-12-20T14:45:10;25.10;26.10
33580;DHT22;19909;43.644;-79.438;2023-12-20T14:47:37;25.00;26.20
33580;DHT22;19909;43.644;-79.438;2023-12-20T14:50:04;24.90;26.30
33580;DHT22;19909;43.644;-79.438;2023-12-20T14:52:31;24.80;26.40
33580;DHT22;19909;43.644;-79.438;2023-12-20T14:54:57;24.70;26.80
33580;DHT22;19909;43.644;-79.438;2023-12-20T14:57:23;24.60;26.20
33580;DHT22;19909;43.644;-79.438;2023-12-20T14:59:49;24.60;26.20
33580;DHT22;19909;43.644;-79.438;2023-12-20T15:02:16;24.50;26.30